sensor_id;sensor_type;location;lat;lon;timestamp;pressure;altitude;pressure_sealevel;temperature;humidity
48244;BME280;34053;51.088;6.572;2022-12-05T00:01:58;101052.34;;;2.96;78.01
48244;BME280;34053;51.088;6.572;2022-12-05T00:04:28;101050.63;;;2.95;78.51
48244;BME280;34053;51.088;6.572;2022-12-05T00:06:59;101054.09;;;2.97;78.63
48244;BME280;34053;51.088;6.572;2022-12-05T00:09:30;101044.59;;;2.96;78.85
48244;BME280;34053;51.088;6.572;2022-12-05T00:12:00;101054.94;;;2.93;78.87
48244;BME280;34053;51.088;6.572;2022-12-05T00:14:31;101041.94;;;2.90;78.90
48244;BME280;34053;51.088;6.572;2022-12-05T00:17:01;101038.53;;;2.97;78.33
48244;BME280;34053;51.088;6.572;2022-12-05T00:19:34;101043.78;;;3.03;77.93
48244;BME280;34053;51.088;6.572;2022-12-05T00:22:05;101042.97;;;3.07;78.25
48244;BME280;34053;51.088;6.572;2022-12-05T00:24:35;101047.22;;;3.01;77.66
48244;BME280;34053;51.088;6.572;2022-12-05T00:27:06;101049.84;;;3.05;78.57
48244;BME280;34053;51.088;6.572;2022-12-05T00:29:36;101057.63;;;3.07;78.00
48244;BME280;34053;51.088;6.572;2022-12-05T00:32:07;101056.84;;;3.12;78.26
48244;BME280;34053;51.088;6.572;2022-12-05T00:34:38;101067.06;;;2.97;78.41
48244;BME280;34053;51.088;6.572;2022-12-05T00:37:08;101066.13;;;2.89;78.87
48244;BME280;34053;51.088;6.572;2022-12-05T00:39:39;101049.66;;;2.83;79.86
48244;BME280;34053;51.088;6.572;2022-12-05T00:42:09;101053.22;;;2.95;79.16
48244;BME280;34053;51.088;6.572;2022-12-05T00:44:40;101056.69;;;2.98;78.36
48244;BME280;34053;51.088;6.572;2022-12-05T00:47:10;101050.75;;;3.07;78.18
48244;BME280;34053;51.088;6.572;2022-12-05T00:49:41;101049.81;;;3.02;78.32
48244;BME280;34053;51.088;6.572;2022-12-05T00:52:12;101045.59;;;3.12;77.94
48244;BME280;34053;51.088;6.572;2022-12-05T00:54:42;101052.50;;;3.08;77.67
48244;BME280;34053;51.088;6.572;2022-12-05T00:57:13;101052.50;;;3.10;78.15
48244;BME280;34053;51.088;6.572;2022-12-05T00:59:44;101056.88;;;3.15;77.82
48244;BME280;34053;51.088;6.572;2022-12-05T01:02:15;101055.94;;;3.10;77.94
48244;BME280;34053;51.088;6.572;2022-12-05T01:04:45;101056.66;;;2.91;78.82
48244;BME280;34053;51.088;6.572;2022-12-05T01:07:16;101060.22;;;3.05;78.71
48244;BME280;34053;51.088;6.572;2022-12-05T01:09:46;101060.13;;;2.96;78.71
48244;BME280;34053;51.088;6.572;2022-12-05T01:12:17;101059.34;;;3.02;79.27
48244;BME280;34053;51.088;6.572;2022-12-05T01:14:47;101055.00;;;3.02;78.37
48244;BME280;34053;51.088;6.572;2022-12-05T01:17:18;101053.25;;;2.96;79.39
48244;BME280;34053;51.088;6.572;2022-12-05T01:19:49;101048.03;;;2.95;79.54
48244;BME280;34053;51.088;6.572;2022-12-05T01:22:19;101054.94;;;2.93;78.83
48244;BME280;34053;51.088;6.572;2022-12-05T01:24:50;101046.38;;;3.00;78.37
48244;BME280;34053;51.088;6.572;2022-12-05T01:27:20;101054.25;;;3.12;78.22
48244;BME280;34053;51.088;6.572;2022-12-05T01:29:51;101052.44;;;3.04;78.49
48244;BME280;34053;51.088;6.572;2022-12-05T01:32:21;101059.28;;;2.95;79.69
48244;BME280;34053;51.088;6.572;2022-12-05T01:34:53;101065.38;;;2.99;79.46
48244;BME280;34053;51.088;6.572;2022-12-05T01:37:24;101064.53;;;3.03;79.06
48244;BME280;34053;51.088;6.572;2022-12-05T01:39:54;101070.59;;;3.04;78.43
48244;BME280;34053;51.088;6.572;2022-12-05T01:42:25;101065.38;;;3.01;78.92
48244;BME280;34053;51.088;6.572;2022-12-05T01:45:02;101072.19;;;2.91;79.12
48244;BME280;34053;51.088;6.572;2022-12-05T01:47:34;101069.69;;;3.00;79.18
48244;BME280;34053;51.088;6.572;2022-12-05T01:50:06;101067.94;;;2.97;79.43
48244;BME280;34053;51.088;6.572;2022-12-05T01:52:38;101074.00;;;2.98;79.57
48244;BME280;34053;51.088;6.572;2022-12-05T01:55:12;101075.63;;;2.91;79.24
48244;BME280;34053;51.088;6.572;2022-12-05T01:57:44;101074.00;;;2.98;79.08
48244;BME280;34053;51.088;6.572;2022-12-05T02:00:18;101077.47;;;3.00;78.70
48244;BME280;34053;51.088;6.572;2022-12-05T02:02:56;101069.72;;;3.03;78.72
48244;BME280;34053;51.088;6.572;2022-12-05T02:05:31;101075.75;;;3.02;78.52
48244;BME280;34053;51.088;6.572;2022-12-05T02:08:05;101072.34;;;3.06;78.72
48244;BME280;34053;51.088;6.572;2022-12-05T02:10:44;101076.63;;;3.04;78.71
48244;BME280;34053;51.088;6.572;2022-12-05T02:19:39;101075.03;;;3.19;78.45
48244;BME280;34053;51.088;6.572;2022-12-05T02:25:13;101080.16;;;3.09;78.42
48244;BME280;34053;51.088;6.572;2022-12-05T02:30:39;101076.69;;;3.07;78.83
48244;BME280;34053;51.088;6.572;2022-12-05T02:33:18;101079.22;;;3.04;79.13
48244;BME280;34053;51.088;6.572;2022-12-05T02:36:04;101083.59;;;3.08;79.07
48244;BME280;34053;51.088;6.572;2022-12-05T02:44:23;101068.94;;;3.15;78.57
48244;BME280;34053;51.088;6.572;2022-12-05T02:46:59;101072.38;;;3.09;78.64
48244;BME280;34053;51.088;6.572;2022-12-05T02:49:33;101067.16;;;3.06;78.62
48244;BME280;34053;51.088;6.572;2022-12-05T02:52:07;101073.19;;;3.04;79.05
48244;BME280;34053;51.088;6.572;2022-12-05T02:54:41;101077.53;;;3.06;78.96
48244;BME280;34053;51.088;6.572;2022-12-05T02:57:14;101077.56;;;3.09;78.56
48244;BME280;34053;51.088;6.572;2022-12-05T02:59:45;101075.03;;;3.17;78.64
48244;BME280;34053;51.088;6.572;2022-12-05T03:02:30;101069.81;;;3.12;78.38
48244;BME280;34053;51.088;6.572;2022-12-05T03:07:41;101081.88;;;3.09;78.91
48244;BME280;34053;51.088;6.572;2022-12-05T03:10:16;101080.97;;;3.05;78.72
48244;BME280;34053;51.088;6.572;2022-12-05T03:12:55;101082.00;;;3.23;78.36
48244;BME280;34053;51.088;6.572;2022-12-05T03:15:33;101086.25;;;3.13;79.10
48244;BME280;34053;51.088;6.572;2022-12-05T03:18:15;101088.84;;;3.14;77.92
48244;BME280;34053;51.088;6.572;2022-12-05T03:20:59;101088.00;;;3.19;78.36
48244;BME280;34053;51.088;6.572;2022-12-05T03:23:40;101091.34;;;3.05;78.85
48244;BME280;34053;51.088;6.572;2022-12-05T03:26:22;101089.66;;;3.10;79.22
48244;BME280;34053;51.088;6.572;2022-12-05T03:34:57;101101.72;;;3.05;79.10
48244;BME280;34053;51.088;6.572;2022-12-05T03:40:41;101096.53;;;3.07;78.87
48244;BME280;34053;51.088;6.572;2022-12-05T03:46:02;101091.34;;;3.07;78.77
48244;BME280;34053;51.088;6.572;2022-12-05T03:48:38;101092.22;;;3.06;78.92
48244;BME280;34053;51.088;6.572;2022-12-05T03:51:15;101102.56;;;3.04;79.43
48244;BME280;34053;51.088;6.572;2022-12-05T03:54:05;101093.88;;;3.02;79.20
48244;BME280;34053;51.088;6.572;2022-12-05T03:56:40;101098.22;;;3.02;78.82
48244;BME280;34053;51.088;6.572;2022-12-05T04:01:54;101104.41;;;3.16;78.33
48244;BME280;34053;51.088;6.572;2022-12-05T04:04:33;101107.03;;;3.18;78.65
48244;BME280;34053;51.088;6.572;2022-12-05T04:07:06;101105.25;;;3.12;78.46
48244;BME280;34053;51.088;6.572;2022-12-05T04:09:43;101104.31;;;3.07;78.97
48244;BME280;34053;51.088;6.572;2022-12-05T04:12:21;101103.53;;;3.15;79.08
48244;BME280;34053;51.088;6.572;2022-12-05T04:14:57;101114.69;;;3.07;78.71
48244;BME280;34053;51.088;6.572;2022-12-05T04:23:11;101114.56;;;2.96;78.76
48244;BME280;34053;51.088;6.572;2022-12-05T04:26:13;101111.97;;;2.96;78.86
48244;BME280;34053;51.088;6.572;2022-12-05T04:28:57;101112.88;;;2.99;78.47
48244;BME280;34053;51.088;6.572;2022-12-05T04:31:42;101116.25;;;2.91;78.76
48244;BME280;34053;51.088;6.572;2022-12-05T04:34:14;101115.44;;;2.95;78.97
48244;BME280;34053;51.088;6.572;2022-12-05T04:37:03;101118.06;;;2.99;78.44
48244;BME280;34053;51.088;6.572;2022-12-05T04:39:40;101120.66;;;2.98;79.00
48244;BME280;34053;51.088;6.572;2022-12-05T04:42:19;101125.94;;;3.07;77.86
48244;BME280;34053;51.088;6.572;2022-12-05T04:44:53;101127.53;;;2.96;78.40
48244;BME280;34053;51.088;6.572;2022-12-05T04:47:30;101120.81;;;3.12;77.97
48244;BME280;34053;51.088;6.572;2022-12-05T04:50:03;101123.28;;;3.01;78.25
48244;BME280;34053;51.088;6.572;2022-12-05T04:52:36;101118.16;;;3.07;77.81
48244;BME280;34053;51.088;6.572;2022-12-05T04:55:14;101120.69;;;3.01;78.01
48244;BME280;34053;51.088;6.572;2022-12-05T04:58:11;101121.50;;;2.98;77.42
48244;BME280;34053;51.088;6.572;2022-12-05T05:01:16;101121.50;;;2.98;77.95
48244;BME280;34053;51.088;6.572;2022-12-05T05:03:55;101124.13;;;3.00;77.83
48244;BME280;34053;51.088;6.572;2022-12-05T05:06:27;101122.44;;;3.05;77.61
48244;BME280;34053;51.088;6.572;2022-12-05T05:08:58;101124.25;;;3.12;77.71
48244;BME280;34053;51.088;6.572;2022-12-05T05:11:32;101122.47;;;3.07;76.89
48244;BME280;34053;51.088;6.572;2022-12-05T05:14:03;101134.56;;;3.08;77.16
48244;BME280;34053;51.088;6.572;2022-12-05T05:16:37;101139.75;;;3.08;77.27
48244;BME280;34053;51.088;6.572;2022-12-05T05:19:09;101138.06;;;3.10;76.81
48244;BME280;34053;51.088;6.572;2022-12-05T05:21:41;101143.06;;;2.93;77.02
48244;BME280;34053;51.088;6.572;2022-12-05T05:24:12;101139.59;;;2.94;77.41
48244;BME280;34053;51.088;6.572;2022-12-05T05:26:44;101144.78;;;2.91;77.24
48244;BME280;34053;51.088;6.572;2022-12-05T05:29:15;101143.97;;;2.96;77.45
48244;BME280;34053;51.088;6.572;2022-12-05T05:31:46;101142.25;;;2.98;77.05
48244;BME280;34053;51.088;6.572;2022-12-05T05:34:17;101137.91;;;2.96;77.39
48244;BME280;34053;51.088;6.572;2022-12-05T05:36:50;101140.50;;;2.96;76.67
48244;BME280;34053;51.088;6.572;2022-12-05T05:39:22;101148.25;;;2.93;77.13
48244;BME280;34053;51.088;6.572;2022-12-05T05:41:52;101142.19;;;2.92;76.94
48244;BME280;34053;51.088;6.572;2022-12-05T05:44:23;101144.78;;;2.91;76.88
48244;BME280;34053;51.088;6.572;2022-12-05T05:46:53;101145.63;;;2.88;76.85
48244;BME280;34053;51.088;6.572;2022-12-05T05:49:24;101151.66;;;2.89;76.57
48244;BME280;34053;51.088;6.572;2022-12-05T05:51:54;101153.41;;;2.90;76.80
48244;BME280;34053;51.088;6.572;2022-12-05T05:54:25;101153.44;;;2.93;76.14
48244;BME280;34053;51.088;6.572;2022-12-05T05:56:55;101150.81;;;2.90;76.69
48244;BME280;34053;51.088;6.572;2022-12-05T05:59:26;101151.66;;;2.90;76.26
48244;BME280;34053;51.088;6.572;2022-12-05T06:01:56;101159.38;;;2.82;76.34
48244;BME280;34053;51.088;6.572;2022-12-05T06:04:27;101152.44;;;2.80;76.43
48244;BME280;34053;51.088;6.572;2022-12-05T06:06:57;101160.22;;;2.81;76.72
48244;BME280;34053;51.088;6.572;2022-12-05T06:09:28;101156.72;;;2.78;76.14
48244;BME280;34053;51.088;6.572;2022-12-05T06:11:58;101164.50;;;2.79;76.66
48244;BME280;34053;51.088;6.572;2022-12-05T06:14:29;101156.72;;;2.79;76.13
48244;BME280;34053;51.088;6.572;2022-12-05T06:17:00;101155.81;;;2.77;76.29
48244;BME280;34053;51.088;6.572;2022-12-05T06:19:30;101156.72;;;2.76;76.62
48244;BME280;34053;51.088;6.572;2022-12-05T06:22:01;101158.41;;;2.76;76.52
48244;BME280;34053;51.088;6.572;2022-12-05T06:24:31;101163.66;;;2.80;76.49
48244;BME280;34053;51.088;6.572;2022-12-05T06:27:02;101158.41;;;2.76;76.89
48244;BME280;34053;51.088;6.572;2022-12-05T06:29:33;101161.00;;;2.77;76.57
48244;BME280;34053;51.088;6.572;2022-12-05T06:32:04;101163.59;;;2.77;75.85
48244;BME280;34053;51.088;6.572;2022-12-05T06:34:35;101161.88;;;2.76;76.59
48244;BME280;34053;51.088;6.572;2022-12-05T06:37:06;101175.66;;;2.72;76.64
48244;BME280;34053;51.088;6.572;2022-12-05T06:39:36;101169.63;;;2.75;76.49
48244;BME280;34053;51.088;6.572;2022-12-05T06:42:07;101177.38;;;2.73;76.93
48244;BME280;34053;51.088;6.572;2022-12-05T06:44:38;101173.88;;;2.70;76.99
48244;BME280;34053;51.088;6.572;2022-12-05T06:47:09;101176.50;;;2.71;77.01
48244;BME280;34053;51.088;6.572;2022-12-05T06:49:40;101183.34;;;2.66;77.20
48244;BME280;34053;51.088;6.572;2022-12-05T06:52:10;101183.22;;;2.58;77.51
48244;BME280;34053;51.088;6.572;2022-12-05T06:54:42;101180.69;;;2.63;76.83
48244;BME280;34053;51.088;6.572;2022-12-05T06:57:12;101179.00;;;2.65;77.19
48244;BME280;34053;51.088;6.572;2022-12-05T06:59:45;101186.84;;;2.71;77.19
48244;BME280;34053;51.088;6.572;2022-12-05T07:02:16;101187.69;;;2.70;76.90
48244;BME280;34053;51.088;6.572;2022-12-05T07:04:46;101195.41;;;2.65;77.07
48244;BME280;34053;51.088;6.572;2022-12-05T07:07:17;101195.41;;;2.64;77.01
48244;BME280;34053;51.088;6.572;2022-12-05T07:09:47;101194.56;;;2.65;77.53
48244;BME280;34053;51.088;6.572;2022-12-05T07:12:21;101195.53;;;2.72;77.23
48244;BME280;34053;51.088;6.572;2022-12-05T07:14:51;101203.19;;;2.65;76.68
48244;BME280;34053;51.088;6.572;2022-12-05T07:17:22;101202.41;;;2.71;76.61
48244;BME280;34053;51.088;6.572;2022-12-05T07:19:52;101204.97;;;2.68;76.70
48244;BME280;34053;51.088;6.572;2022-12-05T07:22:23;101209.28;;;2.69;76.64
48244;BME280;34053;51.088;6.572;2022-12-05T07:24:53;101220.47;;;2.65;77.14
48244;BME280;34053;51.088;6.572;2022-12-05T07:27:24;101215.34;;;2.70;77.07
48244;BME280;34053;51.088;6.572;2022-12-05T07:29:55;101220.47;;;2.63;77.04
48244;BME280;34053;51.088;6.572;2022-12-05T07:32:25;101218.78;;;2.67;77.25
48244;BME280;34053;51.088;6.572;2022-12-05T07:34:56;101221.44;;;2.73;76.77
48244;BME280;34053;51.088;6.572;2022-12-05T07:37:26;101227.41;;;2.69;76.35
48244;BME280;34053;51.088;6.572;2022-12-05T07:39:57;101225.69;;;2.68;76.71
48244;BME280;34053;51.088;6.572;2022-12-05T07:42:27;101225.69;;;2.68;76.80
48244;BME280;34053;51.088;6.572;2022-12-05T07:44:58;101236.06;;;2.70;76.51
48244;BME280;34053;51.088;6.572;2022-12-05T07:47:29;101227.41;;;2.69;76.64
48244;BME280;34053;51.088;6.572;2022-12-05T07:50:00;101239.50;;;2.67;76.80
48244;BME280;34053;51.088;6.572;2022-12-05T07:52:30;101231.59;;;2.56;77.01
48244;BME280;34053;51.088;6.572;2022-12-05T07:55:01;101241.97;;;2.61;76.53
48244;BME280;34053;51.088;6.572;2022-12-05T07:57:31;101233.34;;;2.60;76.54
48244;BME280;34053;51.088;6.572;2022-12-05T08:00:02;101239.38;;;2.58;76.73
48244;BME280;34053;51.088;6.572;2022-12-05T08:02:33;101238.56;;;2.62;76.75
48244;BME280;34053;51.088;6.572;2022-12-05T08:05:04;101236.81;;;2.61;76.74
48244;BME280;34053;51.088;6.572;2022-12-05T08:07:35;101235.94;;;2.59;77.06
48244;BME280;34053;51.088;6.572;2022-12-05T08:10:06;101243.66;;;2.57;77.05
48244;BME280;34053;51.088;6.572;2022-12-05T08:12:36;101245.47;;;2.61;76.94
48244;BME280;34053;51.088;6.572;2022-12-05T08:15:08;101243.72;;;2.62;76.42
48244;BME280;34053;51.088;6.572;2022-12-05T08:17:38;101252.34;;;2.61;76.92
48244;BME280;34053;51.088;6.572;2022-12-05T08:20:09;101254.97;;;2.62;76.72
48244;BME280;34053;51.088;6.572;2022-12-05T08:22:40;101255.84;;;2.63;76.15
48244;BME280;34053;51.088;6.572;2022-12-05T08:25:11;101254.06;;;2.59;76.69
48244;BME280;34053;51.088;6.572;2022-12-05T08:27:41;101258.41;;;2.60;76.70
48244;BME280;34053;51.088;6.572;2022-12-05T08:30:12;101261.88;;;2.62;77.05
48244;BME280;34053;51.088;6.572;2022-12-05T08:32:42;101272.22;;;2.60;76.60
48244;BME280;34053;51.088;6.572;2022-12-05T08:35:13;101273.94;;;2.60;76.87
48244;BME280;34053;51.088;6.572;2022-12-05T08:37:48;101272.22;;;2.59;76.72
48244;BME280;34053;51.088;6.572;2022-12-05T08:40:21;101270.47;;;2.61;76.54
48244;BME280;34053;51.088;6.572;2022-12-05T08:42:51;101274.78;;;2.59;76.71
48244;BME280;34053;51.088;6.572;2022-12-05T08:45:22;101280.91;;;2.62;76.55
48244;BME280;34053;51.088;6.572;2022-12-05T08:47:52;101285.44;;;2.79;75.96
48244;BME280;34053;51.088;6.572;2022-12-05T08:50:23;101284.66;;;2.85;75.87
48244;BME280;34053;51.088;6.572;2022-12-05T08:52:53;101287.22;;;2.81;75.78
48244;BME280;34053;51.088;6.572;2022-12-05T08:55:24;101288.81;;;2.75;75.91
48244;BME280;34053;51.088;6.572;2022-12-05T08:57:54;101294.78;;;2.69;76.47
48244;BME280;34053;51.088;6.572;2022-12-05T09:00:25;101287.81;;;2.63;76.46
48244;BME280;34053;51.088;6.572;2022-12-05T09:02:55;101295.63;;;2.66;76.10
48244;BME280;34053;51.088;6.572;2022-12-05T09:05:26;101297.38;;;2.69;76.09
48244;BME280;34053;51.088;6.572;2022-12-05T09:07:56;101293.88;;;2.65;76.16
48244;BME280;34053;51.088;6.572;2022-12-05T09:10:29;101291.28;;;2.64;76.33
48244;BME280;34053;51.088;6.572;2022-12-05T09:12:59;101291.31;;;2.67;76.57
48244;BME280;34053;51.088;6.572;2022-12-05T09:15:30;101294.75;;;2.64;77.13
48244;BME280;34053;51.088;6.572;2022-12-05T09:18:00;101301.66;;;2.65;76.85
48244;BME280;34053;51.088;6.572;2022-12-05T09:20:31;101295.69;;;2.71;76.64
48244;BME280;34053;51.088;6.572;2022-12-05T09:23:01;101303.44;;;2.68;76.59
48244;BME280;34053;51.088;6.572;2022-12-05T09:25:34;101304.28;;;2.68;76.31
48244;BME280;34053;51.088;6.572;2022-12-05T09:28:04;101303.44;;;2.68;77.17
48244;BME280;34053;51.088;6.572;2022-12-05T09:30:35;101307.72;;;2.66;77.01
48244;BME280;34053;51.088;6.572;2022-12-05T09:33:05;101309.41;;;2.64;77.26
48244;BME280;34053;51.088;6.572;2022-12-05T09:35:38;101312.00;;;2.64;77.52
48244;BME280;34053;51.088;6.572;2022-12-05T09:38:09;101301.63;;;2.62;77.95
48244;BME280;34053;51.088;6.572;2022-12-05T09:40:41;101303.19;;;2.52;78.09
48244;BME280;34053;51.088;6.572;2022-12-05T09:43:29;101307.56;;;2.55;78.53
48244;BME280;34053;51.088;6.572;2022-12-05T09:49:06;101310.59;;;2.88;76.65
48244;BME280;34053;51.088;6.572;2022-12-05T09:51:42;101305.28;;;2.78;76.81
48244;BME280;34053;51.088;6.572;2022-12-05T09:54:14;101303.59;;;2.80;76.74
48244;BME280;34053;51.088;6.572;2022-12-05T09:56:48;101309.63;;;2.79;76.72
48244;BME280;34053;51.088;6.572;2022-12-05T09:59:19;101305.41;;;2.85;76.77
48244;BME280;34053;51.088;6.572;2022-12-05T10:02:16;101303.59;;;2.80;77.14
48244;BME280;34053;51.088;6.572;2022-12-05T10:05:04;101306.34;;;2.91;76.86
48244;BME280;34053;51.088;6.572;2022-12-05T10:16:13;101297.66;;;2.88;77.04
48244;BME280;34053;51.088;6.572;2022-12-05T10:23:57;101305.50;;;2.94;76.86
48244;BME280;34053;51.088;6.572;2022-12-05T10:26:32;101303.03;;;3.00;76.76
48244;BME280;34053;51.088;6.572;2022-12-05T10:31:47;101303.16;;;3.09;76.36
48244;BME280;34053;51.088;6.572;2022-12-05T10:37:21;101296.34;;;3.19;75.88
48244;BME280;34053;51.088;6.572;2022-12-05T10:40:00;101304.75;;;3.01;76.15
48244;BME280;34053;51.088;6.572;2022-12-05T10:42:33;101307.25;;;2.93;76.85
48244;BME280;34053;51.088;6.572;2022-12-05T10:45:19;101305.69;;;3.08;76.08
48244;BME280;34053;51.088;6.572;2022-12-05T10:47:55;101312.47;;;2.96;76.38
48244;BME280;34053;51.088;6.572;2022-12-05T10:50:35;101310.75;;;2.97;76.20
48244;BME280;34053;51.088;6.572;2022-12-05T10:53:07;101320.25;;;2.98;76.76
48244;BME280;34053;51.088;6.572;2022-12-05T10:55:43;101315.00;;;2.93;76.62
48244;BME280;34053;51.088;6.572;2022-12-05T10:58:18;101321.06;;;2.94;76.87
48244;BME280;34053;51.088;6.572;2022-12-05T11:01:06;101317.66;;;2.96;76.88
48244;BME280;34053;51.088;6.572;2022-12-05T11:03:38;101321.94;;;2.93;77.07
48244;BME280;34053;51.088;6.572;2022-12-05T11:06:22;101320.28;;;2.99;77.16
48244;BME280;34053;51.088;6.572;2022-12-05T11:08:55;101309.13;;;3.07;76.18
48244;BME280;34053;51.088;6.572;2022-12-05T11:11:28;101315.94;;;2.97;77.10
48244;BME280;34053;51.088;6.572;2022-12-05T11:14:21;101309.19;;;3.08;76.96
48244;BME280;34053;51.088;6.572;2022-12-05T11:16:56;101309.00;;;2.96;77.15
48244;BME280;34053;51.088;6.572;2022-12-05T11:19:31;101307.31;;;2.98;76.60
48244;BME280;34053;51.088;6.572;2022-12-05T11:22:04;101305.47;;;2.91;76.99
48244;BME280;34053;51.088;6.572;2022-12-05T11:24:37;101309.94;;;3.01;77.10
48244;BME280;34053;51.088;6.572;2022-12-05T11:29:57;101320.19;;;2.92;77.72
48244;BME280;34053;51.088;6.572;2022-12-05T11:32:30;101317.47;;;2.86;78.47
48244;BME280;34053;51.088;6.572;2022-12-05T11:38:08;101312.50;;;2.98;77.86
48244;BME280;34053;51.088;6.572;2022-12-05T11:46:46;101314.94;;;2.89;78.37
48244;BME280;34053;51.088;6.572;2022-12-05T11:55:14;101312.22;;;2.79;79.03
48244;BME280;34053;51.088;6.572;2022-12-05T12:33:45;101298.53;;;2.88;79.89
48244;BME280;34053;51.088;6.572;2022-12-05T12:36:27;101306.19;;;2.80;79.68
48244;BME280;34053;51.088;6.572;2022-12-05T12:40:11;101300.25;;;2.88;79.62
48244;BME280;34053;51.088;6.572;2022-12-05T12:42:44;101300.28;;;2.91;79.22
48244;BME280;34053;51.088;6.572;2022-12-05T12:48:24;101301.22;;;2.94;79.02
48244;BME280;34053;51.088;6.572;2022-12-05T12:51:00;101292.53;;;2.94;79.73
48244;BME280;34053;51.088;6.572;2022-12-05T12:53:44;101294.41;;;3.01;79.19
48244;BME280;34053;51.088;6.572;2022-12-05T13:02:23;101283.13;;;2.99;78.56
48244;BME280;34053;51.088;6.572;2022-12-05T13:05:00;101284.94;;;3.06;78.68
48244;BME280;34053;51.088;6.572;2022-12-05T13:07:41;101286.69;;;3.07;78.64
48244;BME280;34053;51.088;6.572;2022-12-05T13:10:44;101291.88;;;3.07;78.74
48244;BME280;34053;51.088;6.572;2022-12-05T13:13:26;101294.53;;;3.12;78.54
48244;BME280;34053;51.088;6.572;2022-12-05T13:16:00;101287.47;;;3.00;79.32
48244;BME280;34053;51.088;6.572;2022-12-05T13:18:31;101284.88;;;3.00;79.38
48244;BME280;34053;51.088;6.572;2022-12-05T13:21:06;101289.22;;;3.04;78.79
48244;BME280;34053;51.088;6.572;2022-12-05T13:23:56;101287.47;;;3.03;79.27
48244;BME280;34053;51.088;6.572;2022-12-05T13:26:32;101293.56;;;3.04;79.23
48244;BME280;34053;51.088;6.572;2022-12-05T13:29:19;101291.81;;;3.04;78.90
48244;BME280;34053;51.088;6.572;2022-12-05T13:31:52;101290.91;;;2.99;78.98
48244;BME280;34053;51.088;6.572;2022-12-05T13:37:09;101295.94;;;2.88;79.08
48244;BME280;34053;51.088;6.572;2022-12-05T13:39:59;101295.91;;;2.85;79.42
48244;BME280;34053;51.088;6.572;2022-12-05T13:42:58;101289.22;;;3.01;78.52
48244;BME280;34053;51.088;6.572;2022-12-05T13:45:30;101291.69;;;2.95;79.04
48244;BME280;34053;51.088;6.572;2022-12-05T13:48:22;101300.31;;;2.94;78.22
48244;BME280;34053;51.088;6.572;2022-12-05T13:50:58;101297.78;;;2.95;78.40
48244;BME280;34053;51.088;6.572;2022-12-05T13:58:49;101310.72;;;2.95;78.75
48244;BME280;34053;51.088;6.572;2022-12-05T14:04:00;101310.69;;;2.94;78.70
48244;BME280;34053;51.088;6.572;2022-12-05T14:06:58;101308.84;;;2.83;78.49
48244;BME280;34053;51.088;6.572;2022-12-05T14:09:53;101309.81;;;2.92;78.58
48244;BME280;34053;51.088;6.572;2022-12-05T14:17:43;101308.84;;;2.85;78.31
48244;BME280;34053;51.088;6.572;2022-12-05T14:22:58;101307.13;;;2.86;78.44
48244;BME280;34053;51.088;6.572;2022-12-05T14:34:22;101318.22;;;2.75;77.99
48244;BME280;34053;51.088;6.572;2022-12-05T14:37:23;101313.88;;;2.73;78.71
48244;BME280;34053;51.088;6.572;2022-12-05T14:40:01;101313.03;;;2.75;78.46
48244;BME280;34053;51.088;6.572;2022-12-05T14:42:56;101314.81;;;2.79;77.94
48244;BME280;34053;51.088;6.572;2022-12-05T14:45:36;101320.69;;;2.67;78.38
48244;BME280;34053;51.088;6.572;2022-12-05T14:50:47;101325.84;;;2.66;78.41
48244;BME280;34053;51.088;6.572;2022-12-05T14:53:41;101322.38;;;2.64;78.60
48244;BME280;34053;51.088;6.572;2022-12-05T14:56:39;101328.31;;;2.57;78.36
48244;BME280;34053;51.088;6.572;2022-12-05T14:59:38;101331.03;;;2.66;78.38
48244;BME280;34053;51.088;6.572;2022-12-05T15:02:15;101334.47;;;2.63;78.08
48244;BME280;34053;51.088;6.572;2022-12-05T15:04:55;101341.44;;;2.69;78.37
48244;BME280;34053;51.088;6.572;2022-12-05T15:07:34;101335.34;;;2.65;78.08
48244;BME280;34053;51.088;6.572;2022-12-05T15:12:57;101339.72;;;2.68;78.04
48244;BME280;34053;51.088;6.572;2022-12-05T15:18:33;101349.13;;;2.63;77.74
48244;BME280;34053;51.088;6.572;2022-12-05T15:21:13;101346.50;;;2.60;78.35
48244;BME280;34053;51.088;6.572;2022-12-05T15:32:16;101357.56;;;2.51;78.28
48244;BME280;34053;51.088;6.572;2022-12-05T15:35:06;101353.31;;;2.55;78.74
48244;BME280;34053;51.088;6.572;2022-12-05T15:40:21;101351.47;;;2.49;77.95
48244;BME280;34053;51.088;6.572;2022-12-05T15:42:54;101355.94;;;2.56;78.55
48244;BME280;34053;51.088;6.572;2022-12-05T15:45:27;101352.47;;;2.56;78.48
48244;BME280;34053;51.088;6.572;2022-12-05T15:50:48;101361.06;;;2.53;78.38
48244;BME280;34053;51.088;6.572;2022-12-05T15:53:39;101358.34;;;2.45;78.41
48244;BME280;34053;51.088;6.572;2022-12-05T15:56:23;101364.41;;;2.47;77.95
48244;BME280;34053;51.088;6.572;2022-12-05T15:59:34;101366.94;;;2.44;78.05
48244;BME280;34053;51.088;6.572;2022-12-05T16:02:44;101374.91;;;2.55;77.87
48244;BME280;34053;51.088;6.572;2022-12-05T16:07:52;101379.03;;;2.42;77.84
48244;BME280;34053;51.088;6.572;2022-12-05T16:10:37;101369.59;;;2.46;78.23
48244;BME280;34053;51.088;6.572;2022-12-05T16:14:02;101373.09;;;2.51;77.82
48244;BME280;34053;51.088;6.572;2022-12-05T16:16:32;101370.44;;;2.46;77.80
48244;BME280;34053;51.088;6.572;2022-12-05T16:19:15;101372.03;;;2.38;78.41
48244;BME280;34053;51.088;6.572;2022-12-05T16:22:13;101372.91;;;2.39;78.01
48244;BME280;34053;51.088;6.572;2022-12-05T16:24:59;101373.56;;;2.27;79.04
48244;BME280;34053;51.088;6.572;2022-12-05T16:27:38;101379.88;;;2.41;78.65
48244;BME280;34053;51.088;6.572;2022-12-05T16:32:48;101378.84;;;2.33;77.95
48244;BME280;34053;51.088;6.572;2022-12-05T16:49:18;101389.38;;;2.42;77.78
48244;BME280;34053;51.088;6.572;2022-12-05T16:51:54;101393.59;;;2.37;77.86
48244;BME280;34053;51.088;6.572;2022-12-05T16:54:28;101394.44;;;2.36;78.30
48244;BME280;34053;51.088;6.572;2022-12-05T16:57:00;101391.81;;;2.33;78.14
48244;BME280;34053;51.088;6.572;2022-12-05T16:59:36;101388.28;;;2.29;78.15